sensor_id;sensor_type;location;lat;lon;timestamp;pressure;altitude;pressure_sealevel;temperature
76476;BMP280;65308;50.078;14.854;2023-05-01T00:01:33;99505.31;;;6.52
76476;BMP280;65308;50.078;14.854;2023-05-01T00:04:00;99520.13;;;6.53
76476;BMP280;65308;50.078;14.854;2023-05-01T00:06:28;99519.09;;;6.44
76476;BMP280;65308;50.078;14.854;2023-05-01T00:08:56;99518.50;;;6.32
76476;BMP280;65308;50.078;14.854;2023-05-01T00:11:24;99515.91;;;6.25
76476;BMP280;65308;50.078;14.854;2023-05-01T00:13:51;99514.41;;;6.24
76476;BMP280;65308;50.078;14.854;2023-05-01T00:16:18;99514.44;;;6.21
76476;BMP280;65308;50.078;14.854;2023-05-01T00:18:45;99514.06;;;6.19
76476;BMP280;65308;50.078;14.854;2023-05-01T00:21:12;99513.25;;;6.25
76476;BMP280;65308;50.078;14.854;2023-05-01T00:23:38;99498.81;;;6.26
76476;BMP280;65308;50.078;14.854;2023-05-01T00:26:05;99512.50;;;6.25
76476;BMP280;65308;50.078;14.854;2023-05-01T00:28:33;99503.81;;;6.21
76476;BMP280;65308;50.078;14.854;2023-05-01T00:31:00;99512.25;;;6.15
76476;BMP280;65308;50.078;14.854;2023-05-01T00:33:27;99509.13;;;6.17
76476;BMP280;65308;50.078;14.854;2023-05-01T00:35:53;99499.25;;;6.17
76476;BMP280;65308;50.078;14.854;2023-05-01T00:38:21;99491.78;;;6.09
76476;BMP280;65308;50.078;14.854;2023-05-01T00:40:49;99495.28;;;6.02
76476;BMP280;65308;50.078;14.854;2023-05-01T00:43:16;99507.41;;;6.03
76476;BMP280;65308;50.078;14.854;2023-05-01T00:45:44;99502.16;;;5.96
76476;BMP280;65308;50.078;14.854;2023-05-01T00:48:11;99492.31;;;5.97
76476;BMP280;65308;50.078;14.854;2023-05-01T00:50:38;99497.19;;;6.02
76476;BMP280;65308;50.078;14.854;2023-05-01T00:53:06;99496.81;;;6.00
76476;BMP280;65308;50.078;14.854;2023-05-01T00:55:33;99491.13;;;5.98
76476;BMP280;65308;50.078;14.854;2023-05-01T00:58:00;99493.44;;;5.96
76476;BMP280;65308;50.078;14.854;2023-05-01T01:00:32;99486.22;;;5.96
76476;BMP280;65308;50.078;14.854;2023-05-01T01:03:02;99489.22;;;5.98
76476;BMP280;65308;50.078;14.854;2023-05-01T01:05:31;99484.34;;;5.93
76476;BMP280;65308;50.078;14.854;2023-05-01T01:08:05;99486.22;;;5.96
76476;BMP280;65308;50.078;14.854;2023-05-01T01:10:37;99481.69;;;5.93
76476;BMP280;65308;50.078;14.854;2023-05-01T01:13:11;99487.09;;;5.86
76476;BMP280;65308;50.078;14.854;2023-05-01T01:15:44;99481.13;;;5.75
76476;BMP280;65308;50.078;14.854;2023-05-01T01:18:22;99476.53;;;5.79
76476;BMP280;65308;50.078;14.854;2023-05-01T01:20:56;99465.94;;;5.75
76476;BMP280;65308;50.078;14.854;2023-05-01T01:23:52;99481.09;;;5.78
76476;BMP280;65308;50.078;14.854;2023-05-01T01:27:03;99474.31;;;5.74
76476;BMP280;65308;50.078;14.854;2023-05-01T01:29:42;99474.72;;;5.68
76476;BMP280;65308;50.078;14.854;2023-05-01T01:32:41;99470.22;;;5.65
76476;BMP280;65308;50.078;14.854;2023-05-01T01:35:19;99469.06;;;5.66
76476;BMP280;65308;50.078;14.854;2023-05-01T01:37:55;99459.91;;;5.71
76476;BMP280;65308;50.078;14.854;2023-05-01T01:40:33;99457.69;;;5.66
76476;BMP280;65308;50.078;14.854;2023-05-01T01:43:02;99459.25;;;5.63
76476;BMP280;65308;50.078;14.854;2023-05-01T01:45:33;99465.72;;;5.55
76476;BMP280;65308;50.078;14.854;2023-05-01T01:48:02;99468.34;;;5.62
76476;BMP280;65308;50.078;14.854;2023-05-01T01:50:32;99463.06;;;5.59
76476;BMP280;65308;50.078;14.854;2023-05-01T01:53:01;99457.06;;;5.51
76476;BMP280;65308;50.078;14.854;2023-05-01T01:55:31;99456.34;;;5.43
76476;BMP280;65308;50.078;14.854;2023-05-01T01:58:01;99448.75;;;5.45
76476;BMP280;65308;50.078;14.854;2023-05-01T02:00:28;99451.78;;;5.47
76476;BMP280;65308;50.078;14.854;2023-05-01T02:02:57;99456.47;;;5.33
76476;BMP280;65308;50.078;14.854;2023-05-01T02:05:26;99451.22;;;5.22
76476;BMP280;65308;50.078;14.854;2023-05-01T02:07:55;99443.56;;;5.28
76476;BMP280;65308;50.078;14.854;2023-05-01T02:10:23;99439.75;;;5.32
76476;BMP280;65308;50.078;14.854;2023-05-01T02:12:52;99444.19;;;5.46
76476;BMP280;65308;50.078;14.854;2023-05-01T02:15:20;99435.94;;;5.37
76476;BMP280;65308;50.078;14.854;2023-05-01T02:17:49;99435.56;;;5.35
76476;BMP280;65308;50.078;14.854;2023-05-01T02:20:17;99429.28;;;5.14
76476;BMP280;65308;50.078;14.854;2023-05-01T02:22:50;99427.75;;;5.17
76476;BMP280;65308;50.078;14.854;2023-05-01T02:25:19;99429.91;;;5.33
76476;BMP280;65308;50.078;14.854;2023-05-01T02:27:51;99427.66;;;5.28
76476;BMP280;65308;50.078;14.854;2023-05-01T02:30:18;99432.28;;;5.23
76476;BMP280;65308;50.078;14.854;2023-05-01T02:32:45;99427.75;;;5.17
76476;BMP280;65308;50.078;14.854;2023-05-01T02:35:12;99431.09;;;5.28
76476;BMP280;65308;50.078;14.854;2023-05-01T02:37:41;99421.28;;;5.21
76476;BMP280;65308;50.078;14.854;2023-05-01T02:40:10;99434.88;;;5.27
76476;BMP280;65308;50.078;14.854;2023-05-01T02:42:40;99425.00;;;5.31
76476;BMP280;65308;50.078;14.854;2023-05-01T02:45:09;99428.09;;;5.22
76476;BMP280;65308;50.078;14.854;2023-05-01T02:47:37;99426.22;;;5.19
76476;BMP280;65308;50.078;14.854;2023-05-01T02:50:05;99431.91;;;5.21
76476;BMP280;65308;50.078;14.854;2023-05-01T02:52:33;99421.78;;;5.06
76476;BMP280;65308;50.078;14.854;2023-05-01T02:55:01;99421.72;;;5.16
76476;BMP280;65308;50.078;14.854;2023-05-01T02:57:31;99422.84;;;5.15
76476;BMP280;65308;50.078;14.854;2023-05-01T03:00:00;99418.94;;;5.27
76476;BMP280;65308;50.078;14.854;2023-05-01T03:02:26;99417.53;;;5.19
76476;BMP280;65308;50.078;14.854;2023-05-01T03:04:53;99409.53;;;5.22
76476;BMP280;65308;50.078;14.854;2023-05-01T03:07:20;99412.69;;;5.07
76476;BMP280;65308;50.078;14.854;2023-05-01T03:09:47;99418.00;;;5.07
76476;BMP280;65308;50.078;14.854;2023-05-01T03:12:13;99416.50;;;4.98
76476;BMP280;65308;50.078;14.854;2023-05-01T03:14:40;99413.84;;;5.02
76476;BMP280;65308;50.078;14.854;2023-05-01T03:17:08;99414.59;;;5.02
76476;BMP280;65308;50.078;14.854;2023-05-01T03:19:35;99412.69;;;5.03
76476;BMP280;65308;50.078;14.854;2023-05-01T03:22:01;99404.78;;;4.99
76476;BMP280;65308;50.078;14.854;2023-05-01T03:24:28;99409.25;;;5.06
76476;BMP280;65308;50.078;14.854;2023-05-01T03:26:55;99402.03;;;5.10
76476;BMP280;65308;50.078;14.854;2023-05-01T03:29:22;99405.03;;;5.12
76476;BMP280;65308;50.078;14.854;2023-05-01T03:31:48;99399.44;;;5.07
76476;BMP280;65308;50.078;14.854;2023-05-01T03:34:16;99401.41;;;4.95
76476;BMP280;65308;50.078;14.854;2023-05-01T03:36:43;99404.06;;;4.92
76476;BMP280;65308;50.078;14.854;2023-05-01T03:39:10;99403.59;;;5.04
76476;BMP280;65308;50.078;14.854;2023-05-01T03:41:37;99404.00;;;5.02
76476;BMP280;65308;50.078;14.854;2023-05-01T03:44:03;99396.38;;;5.08
76476;BMP280;65308;50.078;14.854;2023-05-01T03:46:31;99411.84;;;5.17
76476;BMP280;65308;50.078;14.854;2023-05-01T03:48:57;99409.44;;;5.33
76476;BMP280;65308;50.078;14.854;2023-05-01T03:51:26;99404.78;;;5.44
76476;BMP280;65308;50.078;14.854;2023-05-01T03:53:53;99408.53;;;5.85
76476;BMP280;65308;50.078;14.854;2023-05-01T03:56:21;99413.63;;;6.37
76476;BMP280;65308;50.078;14.854;2023-05-01T03:58:50;99406.16;;;6.79
76476;BMP280;65308;50.078;14.854;2023-05-01T04:01:22;99409.13;;;7.51
76476;BMP280;65308;50.078;14.854;2023-05-01T04:03:52;99401.81;;;7.95
76476;BMP280;65308;50.078;14.854;2023-05-01T04:06:23;99394.66;;;8.09
76476;BMP280;65308;50.078;14.854;2023-05-01T04:16:26;99400.38;;;8.92
76476;BMP280;65308;50.078;14.854;2023-05-01T04:18:53;99397.06;;;9.47
76476;BMP280;65308;50.078;14.854;2023-05-01T04:21:20;99397.88;;;9.73
76476;BMP280;65308;50.078;14.854;2023-05-01T04:23:46;99405.72;;;10.05
76476;BMP280;65308;50.078;14.854;2023-05-01T04:26:13;99407.63;;;10.56
76476;BMP280;65308;50.078;14.854;2023-05-01T04:28:40;99402.75;;;10.76
76476;BMP280;65308;50.078;14.854;2023-05-01T04:31:10;99394.94;;;11.26
76476;BMP280;65308;50.078;14.854;2023-05-01T04:33:38;99404.78;;;11.82
76476;BMP280;65308;50.078;14.854;2023-05-01T04:36:06;99400.66;;;12.40
76476;BMP280;65308;50.078;14.854;2023-05-01T04:38:33;99405.13;;;12.80
76476;BMP280;65308;50.078;14.854;2023-05-01T04:41:01;99412.16;;;13.65
76476;BMP280;65308;50.078;14.854;2023-05-01T04:43:28;99408.75;;;14.22
76476;BMP280;65308;50.078;14.854;2023-05-01T04:45:55;99409.03;;;14.48
76476;BMP280;65308;50.078;14.854;2023-05-01T04:48:26;99412.69;;;14.36
76476;BMP280;65308;50.078;14.854;2023-05-01T04:56:00;99411.69;;;14.72
76476;BMP280;65308;50.078;14.854;2023-05-01T04:58:27;99409.31;;;14.89
76476;BMP280;65308;50.078;14.854;2023-05-01T05:00:54;99404.31;;;15.11
76476;BMP280;65308;50.078;14.854;2023-05-01T05:03:21;99412.78;;;15.69
76476;BMP280;65308;50.078;14.854;2023-05-01T05:05:47;99400.94;;;16.01
76476;BMP280;65308;50.078;14.854;2023-05-01T05:08:14;99415.28;;;16.74
76476;BMP280;65308;50.078;14.854;2023-05-01T05:10:40;99405.78;;;17.48
76476;BMP280;65308;50.078;14.854;2023-05-01T05:15:42;99416.81;;;19.08
76476;BMP280;65308;50.078;14.854;2023-05-01T05:18:08;99400.25;;;18.45
76476;BMP280;65308;50.078;14.854;2023-05-01T05:20:38;99404.25;;;19.05
76476;BMP280;65308;50.078;14.854;2023-05-01T05:23:08;99407.78;;;19.81
76476;BMP280;65308;50.078;14.854;2023-05-01T05:25:34;99407.44;;;19.96
76476;BMP280;65308;50.078;14.854;2023-05-01T05:28:01;99406.22;;;19.27
76476;BMP280;65308;50.078;14.854;2023-05-01T05:30:32;99404.00;;;18.92
76476;BMP280;65308;50.078;14.854;2023-05-01T05:33:00;99407.19;;;18.85
76476;BMP280;65308;50.078;14.854;2023-05-01T05:35:27;99414.59;;;18.56
76476;BMP280;65308;50.078;14.854;2023-05-01T05:37:54;99419.19;;;18.22
76476;BMP280;65308;50.078;14.854;2023-05-01T05:40:21;99411.06;;;18.34
76476;BMP280;65308;50.078;14.854;2023-05-01T05:42:50;99421.97;;;18.62
76476;BMP280;65308;50.078;14.854;2023-05-01T05:45:17;99424.00;;;19.06
76476;BMP280;65308;50.078;14.854;2023-05-01T05:47:45;99420.81;;;19.94
76476;BMP280;65308;50.078;14.854;2023-05-01T05:50:13;99425.34;;;20.68
76476;BMP280;65308;50.078;14.854;2023-05-01T05:52:39;99421.50;;;20.82
76476;BMP280;65308;50.078;14.854;2023-05-01T05:55:08;99432.03;;;21.46
76476;BMP280;65308;50.078;14.854;2023-05-01T06:00:17;99425.25;;;22.92
76476;BMP280;65308;50.078;14.854;2023-05-01T06:02:49;99437.94;;;23.56
76476;BMP280;65308;50.078;14.854;2023-05-01T06:05:18;99437.91;;;25.15
76476;BMP280;65308;50.078;14.854;2023-05-01T06:07:45;99438.56;;;26.57
76476;BMP280;65308;50.078;14.854;2023-05-01T06:10:12;99432.03;;;28.05
76476;BMP280;65308;50.078;14.854;2023-05-01T06:12:39;99435.22;;;28.61
76476;BMP280;65308;50.078;14.854;2023-05-01T06:15:07;99436.81;;;29.16
76476;BMP280;65308;50.078;14.854;2023-05-01T06:17:38;99433.84;;;29.68
76476;BMP280;65308;50.078;14.854;2023-05-01T06:20:05;99439.84;;;30.20
76476;BMP280;65308;50.078;14.854;2023-05-01T06:22:36;99440.72;;;30.71
76476;BMP280;65308;50.078;14.854;2023-05-01T06:25:02;99425.38;;;31.18
76476;BMP280;65308;50.078;14.854;2023-05-01T06:27:30;99425.13;;;29.98
76476;BMP280;65308;50.078;14.854;2023-05-01T06:29:57;99422.50;;;29.00
76476;BMP280;65308;50.078;14.854;2023-05-01T06:32:24;99420.00;;;28.77
76476;BMP280;65308;50.078;14.854;2023-05-01T06:34:52;99416.16;;;28.21
76476;BMP280;65308;50.078;14.854;2023-05-01T06:37:25;99422.50;;;28.83
76476;BMP280;65308;50.078;14.854;2023-05-01T06:42:24;99418.19;;;27.71
76476;BMP280;65308;50.078;14.854;2023-05-01T06:44:51;99416.75;;;28.89
76476;BMP280;65308;50.078;14.854;2023-05-01T06:47:33;99415.69;;;29.55
76476;BMP280;65308;50.078;14.854;2023-05-01T06:50:00;99413.81;;;30.14
76476;BMP280;65308;50.078;14.854;2023-05-01T06:52:29;99412.34;;;30.03
76476;BMP280;65308;50.078;14.854;2023-05-01T06:55:08;99415.88;;;31.41
76476;BMP280;65308;50.078;14.854;2023-05-01T07:00:17;99400.09;;;29.40
76476;BMP280;65308;50.078;14.854;2023-05-01T07:02:44;99400.97;;;29.43
76476;BMP280;65308;50.078;14.854;2023-05-01T07:05:13;99403.28;;;29.10
76476;BMP280;65308;50.078;14.854;2023-05-01T07:10:14;99393.28;;;29.42
76476;BMP280;65308;50.078;14.854;2023-05-01T07:12:45;99401.03;;;30.38
76476;BMP280;65308;50.078;14.854;2023-05-01T07:17:49;99383.94;;;29.37
76476;BMP280;65308;50.078;14.854;2023-05-01T07:20:18;99380.38;;;29.17
76476;BMP280;65308;50.078;14.854;2023-05-01T07:22:45;99383.72;;;28.54
76476;BMP280;65308;50.078;14.854;2023-05-01T07:25:16;99378.63;;;30.92
76476;BMP280;65308;50.078;14.854;2023-05-01T07:27:46;99380.06;;;32.28
76476;BMP280;65308;50.078;14.854;2023-05-01T07:30:31;99376.28;;;29.35
76476;BMP280;65308;50.078;14.854;2023-05-01T07:33:05;99383.88;;;30.20
76476;BMP280;65308;50.078;14.854;2023-05-01T07:35:32;99377.47;;;27.44
76476;BMP280;65308;50.078;14.854;2023-05-01T07:40:37;99381.19;;;29.37
76476;BMP280;65308;50.078;14.854;2023-05-01T07:43:10;99374.13;;;29.44
76476;BMP280;65308;50.078;14.854;2023-05-01T07:45:42;99367.25;;;31.69
76476;BMP280;65308;50.078;14.854;2023-05-01T07:56:40;99351.03;;;30.05
76476;BMP280;65308;50.078;14.854;2023-05-01T07:59:07;99342.72;;;29.29
76476;BMP280;65308;50.078;14.854;2023-05-01T08:01:37;99338.09;;;30.46
76476;BMP280;65308;50.078;14.854;2023-05-01T08:04:06;99346.63;;;30.79
76476;BMP280;65308;50.078;14.854;2023-05-01T08:06:34;99330.47;;;28.17
76476;BMP280;65308;50.078;14.854;2023-05-01T08:09:01;99338.44;;;28.47
76476;BMP280;65308;50.078;14.854;2023-05-01T08:11:28;99335.44;;;29.24
76476;BMP280;65308;50.078;14.854;2023-05-01T08:13:59;99343.28;;;29.74
76476;BMP280;65308;50.078;14.854;2023-05-01T08:21:29;99324.44;;;32.03
76476;BMP280;65308;50.078;14.854;2023-05-01T08:23:56;99324.44;;;30.38
76476;BMP280;65308;50.078;14.854;2023-05-01T08:26:40;99329.06;;;30.84
76476;BMP280;65308;50.078;14.854;2023-05-01T09:38:25;99220.16;;;21.77
76476;BMP280;65308;50.078;14.854;2023-05-01T09:41:07;99215.28;;;21.37
76476;BMP280;65308;50.078;14.854;2023-05-01T10:04:38;99191.34;;;20.74
76476;BMP280;65308;50.078;14.854;2023-05-01T10:07:10;99191.13;;;20.72
76476;BMP280;65308;50.078;14.854;2023-05-01T10:09:38;99183.69;;;20.72
76476;BMP280;65308;50.078;14.854;2023-05-01T10:12:22;99179.03;;;20.48
76476;BMP280;65308;50.078;14.854;2023-05-01T10:14:51;99190.81;;;20.32
76476;BMP280;65308;50.078;14.854;2023-05-01T10:17:20;99178.03;;;19.97
76476;BMP280;65308;50.078;14.854;2023-05-01T10:22:21;99172.72;;;20.59
76476;BMP280;65308;50.078;14.854;2023-05-01T10:24:52;99170.00;;;20.10
76476;BMP280;65308;50.078;14.854;2023-05-01T10:27:20;99171.66;;;20.19
76476;BMP280;65308;50.078;14.854;2023-05-01T10:29:52;99155.31;;;19.28
76476;BMP280;65308;50.078;14.854;2023-05-01T10:32:21;99152.00;;;19.00
76476;BMP280;65308;50.078;14.854;2023-05-01T10:34:51;99159.72;;;18.79
76476;BMP280;65308;50.078;14.854;2023-05-01T10:37:23;99149.25;;;19.47
76476;BMP280;65308;50.078;14.854;2023-05-01T10:39:52;99145.84;;;19.41
76476;BMP280;65308;50.078;14.854;2023-05-01T10:42:19;99139.06;;;19.23
76476;BMP280;65308;50.078;14.854;2023-05-01T10:44:45;99141.13;;;19.05
76476;BMP280;65308;50.078;14.854;2023-05-01T10:47:44;99125.97;;;18.74
76476;BMP280;65308;50.078;14.854;2023-05-01T10:50:12;99125.03;;;18.49
76476;BMP280;65308;50.078;14.854;2023-05-01T10:53:18;99132.56;;;18.84
76476;BMP280;65308;50.078;14.854;2023-05-01T10:55:46;99124.97;;;18.77
76476;BMP280;65308;50.078;14.854;2023-05-01T11:01:26;99097.78;;;18.25
76476;BMP280;65308;50.078;14.854;2023-05-01T11:03:54;99091.66;;;17.57
76476;BMP280;65308;50.078;14.854;2023-05-01T11:06:21;99096.97;;;17.18
76476;BMP280;65308;50.078;14.854;2023-05-01T11:08:49;99087.22;;;17.37
76476;BMP280;65308;50.078;14.854;2023-05-01T11:11:50;99084.03;;;17.78
76476;BMP280;65308;50.078;14.854;2023-05-01T11:14:40;99071.72;;;17.71
76476;BMP280;65308;50.078;14.854;2023-05-01T11:25:01;99047.78;;;18.20
76476;BMP280;65308;50.078;14.854;2023-05-01T11:30:12;99039.66;;;18.78
76476;BMP280;65308;50.078;14.854;2023-05-01T11:32:43;99048.75;;;18.87
76476;BMP280;65308;50.078;14.854;2023-05-01T11:35:16;99051.09;;;18.60
76476;BMP280;65308;50.078;14.854;2023-05-01T11:37:54;99035.16;;;18.40
76476;BMP280;65308;50.078;14.854;2023-05-01T11:40:23;99027.84;;;18.12
76476;BMP280;65308;50.078;14.854;2023-05-01T11:42:56;99024.34;;;18.28
76476;BMP280;65308;50.078;14.854;2023-05-01T11:45:26;99034.91;;;18.43
76476;BMP280;65308;50.078;14.854;2023-05-01T11:47:53;99013.16;;;18.60
76476;BMP280;65308;50.078;14.854;2023-05-01T11:50:30;99011.88;;;18.67
76476;BMP280;65308;50.078;14.854;2023-05-01T11:53:00;99020.69;;;18.78
76476;BMP280;65308;50.078;14.854;2023-05-01T11:55:32;99005.03;;;19.01
76476;BMP280;65308;50.078;14.854;2023-05-01T11:58:02;98998.56;;;19.10
76476;BMP280;65308;50.078;14.854;2023-05-01T12:00:30;99006.09;;;18.87
76476;BMP280;65308;50.078;14.854;2023-05-01T12:02:59;99010.19;;;18.58
76476;BMP280;65308;50.078;14.854;2023-05-01T12:05:27;99006.31;;;18.42
76476;BMP280;65308;50.078;14.854;2023-05-01T12:08:10;98991.19;;;18.69
76476;BMP280;65308;50.078;14.854;2023-05-01T12:15:54;98983.66;;;19.22
76476;BMP280;65308;50.078;14.854;2023-05-01T12:18:21;98976.56;;;19.14
76476;BMP280;65308;50.078;14.854;2023-05-01T12:20:49;98968.81;;;19.23
76476;BMP280;65308;50.078;14.854;2023-05-01T12:23:30;98975.44;;;18.98
76476;BMP280;65308;50.078;14.854;2023-05-01T12:26:01;98966.91;;;18.88
76476;BMP280;65308;50.078;14.854;2023-05-01T12:28:52;98954.63;;;18.81
76476;BMP280;65308;50.078;14.854;2023-05-01T12:31:21;98949.91;;;19.18
76476;BMP280;65308;50.078;14.854;2023-05-01T12:33:52;98937.13;;;19.37
76476;BMP280;65308;50.078;14.854;2023-05-01T12:36:21;98929.28;;;19.33
76476;BMP280;65308;50.078;14.854;2023-05-01T12:38:54;98942.41;;;19.29
76476;BMP280;65308;50.078;14.854;2023-05-01T12:41:31;98939.66;;;19.54
76476;BMP280;65308;50.078;14.854;2023-05-01T12:43:59;98916.53;;;19.53
76476;BMP280;65308;50.078;14.854;2023-05-01T12:46:42;98922.09;;;19.85
76476;BMP280;65308;50.078;14.854;2023-05-01T12:54:26;98912.16;;;19.44
76476;BMP280;65308;50.078;14.854;2023-05-01T12:57:04;98906.16;;;19.51
76476;BMP280;65308;50.078;14.854;2023-05-01T12:59:35;98900.31;;;19.42
76476;BMP280;65308;50.078;14.854;2023-05-01T13:02:07;98894.09;;;19.47
76476;BMP280;65308;50.078;14.854;2023-05-01T13:08:07;98887.13;;;19.76
76476;BMP280;65308;50.078;14.854;2023-05-01T13:10:35;98886.09;;;19.79
76476;BMP280;65308;50.078;14.854;2023-05-01T13:13:07;98881.72;;;19.95
76476;BMP280;65308;50.078;14.854;2023-05-01T13:15:50;98865.25;;;19.68
76476;BMP280;65308;50.078;14.854;2023-05-01T13:20:47;98875.59;;;19.70
76476;BMP280;65308;50.078;14.854;2023-05-01T13:25:44;98865.56;;;20.02
76476;BMP280;65308;50.078;14.854;2023-05-01T13:28:16;98875.22;;;19.60
76476;BMP280;65308;50.078;14.854;2023-05-01T13:30:49;98875.69;;;19.64
76476;BMP280;65308;50.078;14.854;2023-05-01T13:33:22;98897.44;;;20.02
76476;BMP280;65308;50.078;14.854;2023-05-01T13:35:50;98889.31;;;19.96
76476;BMP280;65308;50.078;14.854;2023-05-01T13:38:16;98866.75;;;20.07
76476;BMP280;65308;50.078;14.854;2023-05-01T13:40:47;98876.53;;;20.29
76476;BMP280;65308;50.078;14.854;2023-05-01T13:43:15;98875.97;;;20.17
76476;BMP280;65308;50.078;14.854;2023-05-01T13:45:41;98880.00;;;20.61
76476;BMP280;65308;50.078;14.854;2023-05-01T13:48:08;98859.41;;;20.66
76476;BMP280;65308;50.078;14.854;2023-05-01T13:50:38;98876.97;;;20.52
76476;BMP280;65308;50.078;14.854;2023-05-01T13:53:08;98863.19;;;20.31
76476;BMP280;65308;50.078;14.854;2023-05-01T13:55:38;98874.69;;;20.37
76476;BMP280;65308;50.078;14.854;2023-05-01T13:58:08;98857.41;;;19.83
76476;BMP280;65308;50.078;14.854;2023-05-01T14:00:35;98858.44;;;19.80
76476;BMP280;65308;50.078;14.854;2023-05-01T14:03:09;98857.25;;;19.57
76476;BMP280;65308;50.078;14.854;2023-05-01T14:05:38;98853.59;;;19.49
76476;BMP280;65308;50.078;14.854;2023-05-01T14:08:08;98864.22;;;19.71
76476;BMP280;65308;50.078;14.854;2023-05-01T14:10:35;98856.44;;;19.62
76476;BMP280;65308;50.078;14.854;2023-05-01T14:13:02;98847.72;;;19.69
76476;BMP280;65308;50.078;14.854;2023-05-01T14:15:30;98880.94;;;19.56
76476;BMP280;65308;50.078;14.854;2023-05-01T14:18:03;98859.47;;;19.34
76476;BMP280;65308;50.078;14.854;2023-05-01T15:19:21;98810.78;;;19.79
76476;BMP280;65308;50.078;14.854;2023-05-01T15:21:50;98806.69;;;19.73
76476;BMP280;65308;50.078;14.854;2023-05-01T15:26:59;98815.66;;;19.86
76476;BMP280;65308;50.078;14.854;2023-05-01T15:43:03;98800.84;;;19.69
76476;BMP280;65308;50.078;14.854;2023-05-01T15:45:38;98790.94;;;19.52
76476;BMP280;65308;50.078;14.854;2023-05-01T15:48:07;98791.56;;;19.40
76476;BMP280;65308;50.078;14.854;2023-05-01T16:09:47;98795.81;;;19.73
76476;BMP280;65308;50.078;14.854;2023-05-01T16:12:29;98782.81;;;19.84
76476;BMP280;65308;50.078;14.854;2023-05-01T16:15:00;98802.19;;;19.75
76476;BMP280;65308;50.078;14.854;2023-05-01T16:17:42;98791.66;;;19.72
76476;BMP280;65308;50.078;14.854;2023-05-01T16:20:12;98797.56;;;19.89
76476;BMP280;65308;50.078;14.854;2023-05-01T16:22:42;98781.28;;;19.89
76476;BMP280;65308;50.078;14.854;2023-05-01T16:27:48;98784.81;;;19.84
76476;BMP280;65308;50.078;14.854;2023-05-01T16:30:15;98783.13;;;19.81
76476;BMP280;65308;50.078;14.854;2023-05-01T16:32:43;98785.19;;;19.94
76476;BMP280;65308;50.078;14.854;2023-05-01T16:35:10;98774.41;;;19.69
76476;BMP280;65308;50.078;14.854;2023-05-01T16:52:41;98785.41;;;19.58
76476;BMP280;65308;50.078;14.854;2023-05-01T16:55:07;98780.38;;;19.24
76476;BMP280;65308;50.078;14.854;2023-05-01T17:00:05;98780.69;;;19.40
76476;BMP280;65308;50.078;14.854;2023-05-01T17:05:05;98783.88;;;19.19
76476;BMP280;65308;50.078;14.854;2023-05-01T17:18:07;98788.41;;;19.35
76476;BMP280;65308;50.078;14.854;2023-05-01T17:23:08;98781.56;;;19.29
76476;BMP280;65308;50.078;14.854;2023-05-01T17:25:35;98777.28;;;19.15
76476;BMP280;65308;50.078;14.854;2023-05-01T17:28:02;98786.00;;;19.07
76476;BMP280;65308;50.078;14.854;2023-05-01T17:32:58;98786.47;;;18.57
76476;BMP280;65308;50.078;14.854;2023-05-01T17:38:02;98787.00;;;18.20
76476;BMP280;65308;50.078;14.854;2023-05-01T17:40:28;98790.19;;;18.18
76476;BMP280;65308;50.078;14.854;2023-05-01T17:42:56;98788.81;;;18.06
76476;BMP280;65308;50.078;14.854;2023-05-01T17:45:23;98785.34;;;18.11
76476;BMP280;65308;50.078;14.854;2023-05-01T17:47:51;98781.81;;;17.81
76476;BMP280;65308;50.078;14.854;2023-05-01T17:55:36;98796.19;;;17.59
76476;BMP280;65308;50.078;14.854;2023-05-01T18:00:32;98799.47;;;17.35
76476;BMP280;65308;50.078;14.854;2023-05-01T18:05:35;98794.34;;;17.14
76476;BMP280;65308;50.078;14.854;2023-05-01T18:08:04;98790.19;;;17.13
76476;BMP280;65308;50.078;14.854;2023-05-01T18:10:36;98795.84;;;16.93
76476;BMP280;65308;50.078;14.854;2023-05-01T18:13:08;98795.13;;;16.75
76476;BMP280;65308;50.078;14.854;2023-05-01T18:15:38;98802.72;;;16.66
76476;BMP280;65308;50.078;14.854;2023-05-01T18:18:05;98809.09;;;16.57
76476;BMP280;65308;50.078;14.854;2023-05-01T18:20:33;98797.81;;;16.47
76476;BMP280;65308;50.078;14.854;2023-05-01T18:23:00;98805.66;;;16.34
76476;BMP280;65308;50.078;14.854;2023-05-01T18:25:29;98797.53;;;16.34
76476;BMP280;65308;50.078;14.854;2023-05-01T18:27:58;98797.78;;;16.42
76476;BMP280;65308;50.078;14.854;2023-05-01T18:30:25;98793.59;;;16.30
76476;BMP280;65308;50.078;14.854;2023-05-01T18:32:53;98801.22;;;16.25
76476;BMP280;65308;50.078;14.854;2023-05-01T18:35:20;98806.88;;;16.16
76476;BMP280;65308;50.078;14.854;2023-05-01T18:37:47;98808.72;;;15.93
76476;BMP280;65308;50.078;14.854;2023-05-01T18:40:14;98809.72;;;16.01
76476;BMP280;65308;50.078;14.854;2023-05-01T18:42:42;98810.44;;;16.02
76476;BMP280;65308;50.078;14.854;2023-05-01T18:45:10;98812.97;;;16.22
76476;BMP280;65308;50.078;14.854;2023-05-01T18:47:38;98811.50;;;16.16
76476;BMP280;65308;50.078;14.854;2023-05-01T18:50:06;98815.66;;;16.06
76476;BMP280;65308;50.078;14.854;2023-05-01T18:52:33;98820.78;;;15.98
76476;BMP280;65308;50.078;14.854;2023-05-01T18:55:01;98820.50;;;15.90
76476;BMP280;65308;50.078;14.854;2023-05-01T18:57:32;98826.59;;;15.80
76476;BMP280;65308;50.078;14.854;2023-05-01T19:00:02;98822.34;;;15.67
76476;BMP280;65308;50.078;14.854;2023-05-01T19:02:30;98823.81;;;15.68
76476;BMP280;65308;50.078;14.854;2023-05-01T19:04:57;98821.34;;;15.59
76476;BMP280;65308;50.078;14.854;2023-05-01T19:07:23;98818.94;;;15.72
76476;BMP280;65308;50.078;14.854;2023-05-01T19:09:50;98828.88;;;15.98
76476;BMP280;65308;50.078;14.854;2023-05-01T19:12:17;98819.81;;;16.12
76476;BMP280;65308;50.078;14.854;2023-05-01T19:14:44;98815.41;;;16.09
76476;BMP280;65308;50.078;14.854;2023-05-01T19:17:12;98824.22;;;16.04
76476;BMP280;65308;50.078;14.854;2023-05-01T19:19:40;98821.50;;;16.04
76476;BMP280;65308;50.078;14.854;2023-05-01T19:22:10;98825.66;;;15.99
76476;BMP280;65308;50.078;14.854;2023-05-01T19:24:39;98828.41;;;16.05
76476;BMP280;65308;50.078;14.854;2023-05-01T19:27:06;98830.56;;;15.90
76476;BMP280;65308;50.078;14.854;2023-05-01T19:29:33;98821.69;;;15.84